createdAt,value
2018-10-07T00:02:20.254Z,14.87
2018-10-07T00:04:47.779Z,17.83
2018-10-07T00:07:15.211Z,19.27
2018-10-07T00:09:42.678Z,15.37
2018-10-07T00:12:10.205Z,19.83
2018-10-07T00:14:37.632Z,24.93
2018-10-07T00:17:05.311Z,14.27
2018-10-07T00:19:32.712Z,22.97
2018-10-07T00:22:00.242Z,22.37
2018-10-07T00:24:27.667Z,23.30
2018-10-07T00:26:55.086Z,20.90
2018-10-07T00:29:22.513Z,19.97
2018-10-07T00:31:55.634Z,22.73
2018-10-07T00:34:23.154Z,20.87
2018-10-07T00:36:50.574Z,23.67
2018-10-07T00:39:18.024Z,22.83
2018-10-07T00:41:45.422Z,35.40
2018-10-07T00:44:13.039Z,28.83
2018-10-07T00:46:40.516Z,22.07
2018-10-07T00:49:07.946Z,31.43
2018-10-07T00:51:35.429Z,27.33
2018-10-07T00:54:02.923Z,22.07
2018-10-07T00:56:30.369Z,23.20
2018-10-07T00:58:57.745Z,27.37
2018-10-07T01:01:25.205Z,26.33
2018-10-07T01:03:52.747Z,20.63
2018-10-07T01:06:20.193Z,26.40
2018-10-07T01:08:47.630Z,26.80
2018-10-07T01:11:15.183Z,25.70
2018-10-07T01:13:42.567Z,33.93
2018-10-07T01:16:10.038Z,22.10
2018-10-07T01:18:37.576Z,25.13
2018-10-07T01:21:05.094Z,25.67
2018-10-07T01:23:32.590Z,22.60
2018-10-07T01:26:00.019Z,24.90
2018-10-07T01:28:27.446Z,27.07
2018-10-07T01:30:54.902Z,25.20
2018-10-07T01:33:22.533Z,26.20
2018-10-07T01:35:50.054Z,25.00
2018-10-07T01:38:17.524Z,20.37
2018-10-07T01:40:44.926Z,23.90
2018-10-07T01:43:12.472Z,28.67
2018-10-07T01:45:40.068Z,33.97
2018-10-07T01:48:07.460Z,25.33
2018-10-07T01:50:34.864Z,28.60
2018-10-07T01:53:02.296Z,25.50
2018-10-07T01:55:29.836Z,25.30
2018-10-07T01:57:57.321Z,21.53
2018-10-07T02:00:24.811Z,29.20
2018-10-07T02:02:52.246Z,17.33
2018-10-07T02:05:19.741Z,17.00
2018-10-07T02:07:47.206Z,18.23
2018-10-07T02:10:14.654Z,16.80
2018-10-07T02:12:42.106Z,17.40
2018-10-07T02:15:09.574Z,21.80
2018-10-07T02:17:36.974Z,22.50
2018-10-07T02:20:04.626Z,20.87
2018-10-07T02:22:32.212Z,24.07
2018-10-07T02:24:59.658Z,20.20
2018-10-07T02:27:27.142Z,22.73
2018-10-07T02:29:54.584Z,24.10
2018-10-07T02:32:22.037Z,20.67
2018-10-07T02:34:49.531Z,19.67
2018-10-07T02:37:16.967Z,20.50
2018-10-07T02:39:44.421Z,25.77
2018-10-07T02:42:11.854Z,22.97
2018-10-07T02:44:39.361Z,22.10
2018-10-07T02:47:06.801Z,21.40
2018-10-07T02:49:34.231Z,23.10
2018-10-07T02:52:01.808Z,20.83
2018-10-07T02:54:29.459Z,21.93
2018-10-07T02:56:56.950Z,17.17
2018-10-07T02:59:24.514Z,20.60
2018-10-07T03:01:51.962Z,20.77
2018-10-07T03:04:19.332Z,16.63
2018-10-07T03:06:46.950Z,15.73
2018-10-07T03:09:14.339Z,21.87
2018-10-07T03:11:41.706Z,25.80
2018-10-07T03:14:09.335Z,17.27
2018-10-07T03:16:36.834Z,22.33
2018-10-07T03:19:04.290Z,16.90
2018-10-07T03:21:32.206Z,18.83
2018-10-07T03:23:59.602Z,17.90
2018-10-07T03:26:27.050Z,18.13
2018-10-07T03:28:55.217Z,19.00
2018-10-07T03:31:22.656Z,20.87
2018-10-07T03:33:50.048Z,19.33
2018-10-07T03:36:17.872Z,19.80
2018-10-07T03:38:45.253Z,18.20
2018-10-07T03:41:12.844Z,18.10
2018-10-07T03:43:40.266Z,19.70
2018-10-07T03:46:07.682Z,18.40
2018-10-07T03:48:35.361Z,21.90
2018-10-07T03:51:02.848Z,17.43
2018-10-07T03:53:30.308Z,21.07
2018-10-07T03:55:57.893Z,16.47
2018-10-07T03:58:25.359Z,14.60
2018-10-07T04:00:53.235Z,20.27
2018-10-07T04:03:20.600Z,16.77
2018-10-07T04:05:48.213Z,18.73
2018-10-07T04:08:15.659Z,17.90
2018-10-07T04:10:43.179Z,18.17
2018-10-07T04:13:10.782Z,19.63
2018-10-07T04:15:38.389Z,19.60
2018-10-07T04:18:05.849Z,17.60
2018-10-07T04:20:33.370Z,15.47
2018-10-07T04:23:03.921Z,16.40
2018-10-07T04:25:31.476Z,17.60
2018-10-07T04:27:59.031Z,15.80
2018-10-07T04:30:26.473Z,16.27
2018-10-07T04:32:53.945Z,15.10
2018-10-07T04:35:21.557Z,15.97
2018-10-07T04:37:48.966Z,19.33
2018-10-07T04:40:16.403Z,18.60
2018-10-07T04:42:43.844Z,19.53
2018-10-07T04:45:11.329Z,17.83
2018-10-07T04:47:38.723Z,23.40
2018-10-07T04:50:06.738Z,18.70
2018-10-07T04:52:34.303Z,24.67
2018-10-07T04:55:01.754Z,22.73
2018-10-07T04:57:29.271Z,21.90
2018-10-07T04:59:56.681Z,19.27
2018-10-07T05:02:24.204Z,20.90
2018-10-07T05:04:51.982Z,19.17
2018-10-07T05:07:19.504Z,22.80
2018-10-07T05:09:47.181Z,21.13
2018-10-07T05:12:16.157Z,24.70
2018-10-07T05:14:43.632Z,19.70
2018-10-07T05:17:11.488Z,19.60
2018-10-07T05:19:39.091Z,16.40
2018-10-07T05:22:06.559Z,23.87
2018-10-07T05:24:33.997Z,19.20
2018-10-07T05:27:01.452Z,19.67
2018-10-07T05:29:28.857Z,17.20
2018-10-07T05:31:56.351Z,21.63
2018-10-07T05:34:23.773Z,19.23
2018-10-07T05:36:51.194Z,18.03
2018-10-07T05:39:18.660Z,17.10
2018-10-07T05:41:46.362Z,26.00
2018-10-07T05:44:13.740Z,22.53
2018-10-07T05:46:41.241Z,23.70
2018-10-07T05:49:08.646Z,20.73
2018-10-07T05:51:36.070Z,21.60
2018-10-07T05:54:03.516Z,22.80
2018-10-07T05:56:30.953Z,24.33
2018-10-07T05:58:58.557Z,18.50
2018-10-07T06:01:29.166Z,29.13
2018-10-07T06:04:11.180Z,18.57
2018-10-07T06:06:38.682Z,16.57
2018-10-07T06:09:10.231Z,18.70
2018-10-07T06:11:37.902Z,15.17
2018-10-07T06:14:05.526Z,16.43
2018-10-07T06:16:33.121Z,17.17
2018-10-07T06:19:00.558Z,20.80
2018-10-07T06:21:28.184Z,14.10
2018-10-07T06:23:55.630Z,12.00
2018-10-07T06:26:23.114Z,20.93
2018-10-07T06:28:50.536Z,13.53
2018-10-07T06:31:17.992Z,13.87
2018-10-07T06:33:45.400Z,11.33
2018-10-07T06:36:12.974Z,12.60
2018-10-07T06:38:40.550Z,14.10
2018-10-07T06:41:08.199Z,14.00
2018-10-07T06:43:35.597Z,17.83
2018-10-07T06:51:01.198Z,13.30
2018-10-07T06:53:28.671Z,17.67
2018-10-07T06:55:56.086Z,17.77
2018-10-07T06:58:23.562Z,20.60
2018-10-07T07:00:51.040Z,18.50
2018-10-07T07:03:18.530Z,20.77
2018-10-07T07:05:46.038Z,18.67
2018-10-07T07:08:13.694Z,23.60
2018-10-07T07:10:41.154Z,22.40
2018-10-07T07:13:08.699Z,22.90
2018-10-07T07:15:36.069Z,29.40
2018-10-07T07:18:03.534Z,26.90
2018-10-07T07:20:30.956Z,32.10
2018-10-07T07:22:58.439Z,31.90
2018-10-07T07:25:26.004Z,34.00
2018-10-07T07:27:53.425Z,35.37
2018-10-07T07:30:20.790Z,40.30
2018-10-07T07:32:48.154Z,33.80
2018-10-07T07:35:15.576Z,32.70
2018-10-07T07:37:43.096Z,33.50
2018-10-07T07:40:10.520Z,34.43
2018-10-07T07:42:38.007Z,42.90
2018-10-07T07:45:05.509Z,37.20
2018-10-07T07:47:33.018Z,38.33
2018-10-07T07:50:00.490Z,32.53
2018-10-07T07:52:28.010Z,33.77
2018-10-07T07:54:55.416Z,38.70
2018-10-07T07:57:22.890Z,39.40
2018-10-07T07:59:50.297Z,34.00
2018-10-07T08:02:17.778Z,28.73
2018-10-07T08:04:45.238Z,32.27
2018-10-07T08:07:12.662Z,34.10
2018-10-07T08:09:40.053Z,32.83
2018-10-07T08:12:07.549Z,33.00
2018-10-07T08:14:34.966Z,33.87
2018-10-07T08:17:02.404Z,35.67
2018-10-07T08:19:29.955Z,34.07
2018-10-07T08:21:57.390Z,37.43
2018-10-07T08:24:24.818Z,33.23
2018-10-07T08:26:52.476Z,35.57
2018-10-07T08:29:19.882Z,40.20
2018-10-07T08:31:47.374Z,38.60
2018-10-07T08:34:14.949Z,34.73
2018-10-07T08:36:42.391Z,38.77
2018-10-07T08:39:10.346Z,46.70
2018-10-07T08:41:38.032Z,40.27
2018-10-07T08:44:05.643Z,44.33
2018-10-07T08:46:33.055Z,41.20
2018-10-07T08:49:00.486Z,39.50
2018-10-07T08:51:27.904Z,38.93
2018-10-07T08:53:55.366Z,38.03
2018-10-07T08:56:23.179Z,31.90
2018-10-07T08:58:50.928Z,36.33
2018-10-07T09:01:18.406Z,37.00
2018-10-07T09:03:46.187Z,35.10
2018-10-07T09:06:13.792Z,39.20
2018-10-07T09:08:41.441Z,37.53
2018-10-07T09:11:09.351Z,41.50
2018-10-07T09:13:37.086Z,41.73
2018-10-07T09:16:05.061Z,44.60
2018-10-07T09:18:33.150Z,41.27
2018-10-07T09:21:00.884Z,46.33
2018-10-07T09:23:28.706Z,46.83
2018-10-07T09:25:56.436Z,45.47
2018-10-07T09:28:24.320Z,43.40
2018-10-07T09:30:51.865Z,44.27
2018-10-07T09:33:19.562Z,49.57
2018-10-07T09:35:47.082Z,45.33
2018-10-07T09:38:14.515Z,47.90
2018-10-07T09:40:41.964Z,50.43
2018-10-07T09:43:09.379Z,45.50
2018-10-07T09:45:37.310Z,49.90
2018-10-07T09:48:04.869Z,46.20
2018-10-07T09:50:32.339Z,44.57
2018-10-07T09:52:59.764Z,43.73
2018-10-07T09:55:27.199Z,55.63
2018-10-07T09:57:54.717Z,42.40
2018-10-07T10:00:27.709Z,43.80
2018-10-07T10:02:55.465Z,51.30
2018-10-07T10:05:22.900Z,42.97
2018-10-07T10:07:50.441Z,49.07
2018-10-07T10:10:17.909Z,45.33
2018-10-07T10:12:45.417Z,50.30
2018-10-07T10:15:12.973Z,45.50
2018-10-07T10:17:44.638Z,44.70
2018-10-07T10:20:12.349Z,41.10
2018-10-07T10:24:55.694Z,44.80
2018-10-07T10:27:34.462Z,46.87
2018-10-07T10:30:06.781Z,47.43
2018-10-07T10:33:55.810Z,46.90
2018-10-07T10:36:30.522Z,50.67
2018-10-07T10:39:06.396Z,49.73
2018-10-07T10:41:45.487Z,54.03
2018-10-07T10:44:20.666Z,55.40
2018-10-07T10:47:04.806Z,55.50
2018-10-07T10:49:39.493Z,50.10
2018-10-07T10:52:14.486Z,48.13
2018-10-07T10:54:51.958Z,45.40
2018-10-07T10:57:29.237Z,51.17
2018-10-07T11:00:02.706Z,41.00
2018-10-07T11:04:43.737Z,44.03
2018-10-07T11:07:16.988Z,43.03
2018-10-07T11:10:53.233Z,37.63
2018-10-07T11:13:31.568Z,40.03
2018-10-07T11:16:24.374Z,29.60
2018-10-07T11:19:25.987Z,31.90
2018-10-07T11:24:13.967Z,29.13
2018-10-07T11:26:54.685Z,25.57
2018-10-07T11:29:59.547Z,26.23
2018-10-07T11:32:35.594Z,21.07
2018-10-07T11:35:17.632Z,19.67
2018-10-07T11:38:03.476Z,20.13
2018-10-07T11:40:42.534Z,22.07
2018-10-07T11:43:18.814Z,14.70
2018-10-07T11:45:54.359Z,15.03
2018-10-07T11:48:26.134Z,15.20
2018-10-07T11:51:05.338Z,12.27
2018-10-07T11:53:36.326Z,15.00
2018-10-07T11:56:03.752Z,14.70
2018-10-07T11:58:31.247Z,16.57
2018-10-07T12:00:58.876Z,19.27
2018-10-07T12:03:26.384Z,10.90
2018-10-07T12:05:53.786Z,12.27
2018-10-07T12:08:21.649Z,12.80
2018-10-07T12:10:49.165Z,11.60
2018-10-07T12:13:16.585Z,10.47
2018-10-07T12:15:44.239Z,12.50
2018-10-07T12:18:11.880Z,12.67
2018-10-07T12:20:39.265Z,12.70
2018-10-07T12:23:06.927Z,11.07
2018-10-07T12:25:34.516Z,8.67
2018-10-07T12:28:02.128Z,10.77
2018-10-07T12:30:29.749Z,8.43
2018-10-07T12:32:57.308Z,12.93
2018-10-07T12:35:24.931Z,9.53
2018-10-07T12:37:52.721Z,15.03
2018-10-07T12:40:20.236Z,8.63
2018-10-07T12:42:48.487Z,10.53
2018-10-07T12:45:15.951Z,11.53
2018-10-07T12:47:43.360Z,11.93
2018-10-07T12:50:10.982Z,9.57
2018-10-07T12:52:39.528Z,9.40
2018-10-07T12:55:07.294Z,10.33
2018-10-07T12:57:35.050Z,15.00
2018-10-07T13:00:02.779Z,10.53
2018-10-07T13:02:30.342Z,11.57
2018-10-07T13:04:57.803Z,9.57
2018-10-07T13:07:25.465Z,11.20
2018-10-07T13:09:53.134Z,10.20
2018-10-07T13:12:20.862Z,9.97
2018-10-07T13:14:48.425Z,11.07
2018-10-07T13:17:15.981Z,11.90
2018-10-07T13:19:43.446Z,10.97
2018-10-07T13:22:11.080Z,13.33
2018-10-07T13:24:38.581Z,12.20
2018-10-07T13:27:06.266Z,16.40
2018-10-07T13:29:33.824Z,15.70
2018-10-07T13:32:01.350Z,14.83
2018-10-07T13:34:28.776Z,17.17
2018-10-07T13:36:56.234Z,12.10
2018-10-07T13:39:23.858Z,17.33
2018-10-07T13:41:51.468Z,19.90
2018-10-07T13:44:18.970Z,16.67
2018-10-07T13:46:46.481Z,16.50
2018-10-07T13:49:14.028Z,20.53
2018-10-07T13:51:41.567Z,17.90
2018-10-07T13:54:08.966Z,16.30
2018-10-07T13:56:36.419Z,16.77
2018-10-07T13:59:03.913Z,16.40
2018-10-07T14:01:31.402Z,19.33
2018-10-07T14:03:59.269Z,17.93
2018-10-07T14:06:26.702Z,13.80
2018-10-07T14:08:54.326Z,18.43
2018-10-07T14:11:21.813Z,18.20
2018-10-07T14:13:49.312Z,16.70
2018-10-07T14:16:16.766Z,14.40
2018-10-07T14:18:44.243Z,13.83
2018-10-07T14:21:11.824Z,13.83
2018-10-07T14:23:39.376Z,15.60
2018-10-07T14:26:07.033Z,15.40
2018-10-07T14:28:34.622Z,14.73
2018-10-07T14:31:02.239Z,12.40
2018-10-07T14:33:29.736Z,11.63
2018-10-07T14:35:57.336Z,11.63
2018-10-07T14:38:24.817Z,12.80
2018-10-07T14:40:52.582Z,13.10
2018-10-07T14:43:20.176Z,12.00
2018-10-07T14:45:47.878Z,10.77
2018-10-07T14:48:15.422Z,10.60
2018-10-07T14:50:43.047Z,12.37
2018-10-07T14:53:10.537Z,8.97
2018-10-07T14:55:38.044Z,12.67
2018-10-07T14:58:05.842Z,11.53
2018-10-07T15:00:33.338Z,12.10
2018-10-07T15:03:00.758Z,10.30
2018-10-07T15:05:28.221Z,10.53
2018-10-07T15:07:55.753Z,8.23
2018-10-07T15:10:23.210Z,8.50
2018-10-07T15:12:50.736Z,7.23
2018-10-07T15:15:18.333Z,4.90
2018-10-07T15:17:45.745Z,6.93
2018-10-07T15:20:13.238Z,6.60
2018-10-07T15:22:40.746Z,6.80
2018-10-07T15:25:08.357Z,7.30
2018-10-07T15:27:35.858Z,7.00
2018-10-07T15:30:03.416Z,6.10
2018-10-07T15:32:30.950Z,6.13
2018-10-07T15:35:00.410Z,8.00
2018-10-07T15:37:27.886Z,6.93
2018-10-07T15:39:55.314Z,5.37
2018-10-07T15:42:22.842Z,4.67
2018-10-07T15:44:50.350Z,6.53
2018-10-07T15:47:17.807Z,7.30
2018-10-07T15:49:45.310Z,5.53
2018-10-07T15:52:12.805Z,7.47
2018-10-07T15:54:40.227Z,4.20
2018-10-07T15:57:07.783Z,4.27
2018-10-07T15:59:35.358Z,4.57
2018-10-07T16:02:02.852Z,6.93
2018-10-07T16:04:30.384Z,5.27
2018-10-07T16:06:57.854Z,6.47
2018-10-07T16:09:25.279Z,8.87
2018-10-07T16:11:52.784Z,4.13
2018-10-07T16:14:20.344Z,5.20
2018-10-07T16:16:47.830Z,5.60
2018-10-07T16:19:15.318Z,4.80
2018-10-07T16:21:42.902Z,4.33
2018-10-07T16:24:10.505Z,5.37
2018-10-07T16:26:38.292Z,4.77
2018-10-07T16:29:05.760Z,4.10
2018-10-07T16:31:33.374Z,3.20
2018-10-07T16:34:00.962Z,5.63
2018-10-07T16:36:28.526Z,3.20
2018-10-07T16:38:56.088Z,6.40
2018-10-07T16:41:23.761Z,4.70
2018-10-07T16:43:51.262Z,3.87
2018-10-07T16:46:18.727Z,4.70
2018-10-07T16:48:46.253Z,5.17
2018-10-07T16:51:13.860Z,4.47
2018-10-07T16:53:41.492Z,4.20
2018-10-07T16:56:09.144Z,2.80
2018-10-07T16:58:36.888Z,4.10
2018-10-07T17:01:04.414Z,3.40
2018-10-07T17:03:32.056Z,3.00
2018-10-07T17:05:59.553Z,3.40
2018-10-07T17:08:27.269Z,3.50
2018-10-07T17:10:54.887Z,6.60
2018-10-07T17:13:22.467Z,2.83
2018-10-07T17:15:50.094Z,4.70
2018-10-07T17:18:17.684Z,3.57
2018-10-07T17:20:45.270Z,3.70
2018-10-07T17:23:12.795Z,3.67
2018-10-07T17:25:40.450Z,4.50
2018-10-07T17:28:07.936Z,7.30
2018-10-07T17:30:35.518Z,3.60
2018-10-07T17:33:03.056Z,2.30
2018-10-07T17:35:30.623Z,3.27
2018-10-07T17:37:58.036Z,3.83
2018-10-07T17:40:25.538Z,3.10
2018-10-07T17:42:53.346Z,3.83
2018-10-07T17:45:20.978Z,5.10
2018-10-07T17:47:48.415Z,3.23
2018-10-07T17:50:15.906Z,6.13
2018-10-07T17:52:43.422Z,4.43
2018-10-07T17:55:11.066Z,4.10
2018-10-07T17:57:38.510Z,6.23
2018-10-07T18:00:05.994Z,4.23
2018-10-07T18:02:33.559Z,8.07
2018-10-07T18:05:01.038Z,3.80
2018-10-07T18:07:28.643Z,6.90
2018-10-07T18:09:56.151Z,5.00
2018-10-07T18:12:23.801Z,4.80
2018-10-07T18:14:51.263Z,11.00
2018-10-07T18:17:18.774Z,10.80
2018-10-07T18:19:46.252Z,4.83
2018-10-07T18:22:13.772Z,6.20
2018-10-07T18:24:41.280Z,5.60
2018-10-07T18:27:08.802Z,6.63
2018-10-07T18:29:36.362Z,8.87
2018-10-07T18:32:03.950Z,6.67
2018-10-07T18:34:31.565Z,6.23
2018-10-07T18:36:59.040Z,7.90
2018-10-07T18:39:26.518Z,6.73
2018-10-07T18:41:54.031Z,11.47
2018-10-07T18:44:21.715Z,6.83
2018-10-07T18:46:49.338Z,8.50
2018-10-07T18:49:16.768Z,8.03
2018-10-07T18:51:44.289Z,7.90
2018-10-07T18:54:11.799Z,10.27
2018-10-07T18:56:39.279Z,7.87
2018-10-07T18:59:06.832Z,10.30
2018-10-07T19:01:34.413Z,6.40
2018-10-07T19:04:01.890Z,7.00
2018-10-07T19:06:29.351Z,8.07
2018-10-07T19:08:56.810Z,7.50
2018-10-07T19:11:24.472Z,13.07
2018-10-07T19:13:52.098Z,12.77
2018-10-07T19:16:19.610Z,10.77
2018-10-07T19:18:47.143Z,7.60
2018-10-07T19:21:14.723Z,9.80
2018-10-07T19:23:42.147Z,7.77
2018-10-07T19:26:09.764Z,8.43
2018-10-07T19:28:37.256Z,10.53
2018-10-07T19:31:04.975Z,8.10
2018-10-07T19:33:32.498Z,8.67
2018-10-07T19:35:59.970Z,12.47
2018-10-07T19:38:27.879Z,7.60
2018-10-07T19:40:55.430Z,8.03
2018-10-07T19:43:22.953Z,12.37
2018-10-07T19:45:50.432Z,8.33
2018-10-07T19:48:17.881Z,11.90
2018-10-07T19:50:45.301Z,9.40
2018-10-07T19:53:13.039Z,10.20
2018-10-07T19:55:40.541Z,10.03
2018-10-07T19:58:08.077Z,7.57
2018-10-07T20:00:35.699Z,8.17
2018-10-07T20:03:03.218Z,8.90
2018-10-07T20:05:30.758Z,9.33
2018-10-07T20:07:58.210Z,9.80
2018-10-07T20:10:25.686Z,10.23
2018-10-07T20:12:53.078Z,9.07
2018-10-07T20:15:20.558Z,8.47
2018-10-07T20:17:48.202Z,8.40
2018-10-07T20:20:15.674Z,10.80
2018-10-07T20:22:43.292Z,8.13
2018-10-07T20:25:10.842Z,8.60
2018-10-07T20:27:38.420Z,13.10
2018-10-07T20:30:06.043Z,10.73
2018-10-07T20:32:33.529Z,10.03
2018-10-07T20:35:01.006Z,8.67
2018-10-07T20:37:28.516Z,9.50
2018-10-07T20:39:55.933Z,9.90
2018-10-07T20:42:23.454Z,12.00
2018-10-07T20:44:50.967Z,14.93
2018-10-07T20:47:18.678Z,10.43
2018-10-07T20:49:46.179Z,10.40
2018-10-07T20:52:13.745Z,11.83
2018-10-07T20:54:41.232Z,10.63
2018-10-07T20:57:08.787Z,12.50
2018-10-07T20:59:36.829Z,10.23
2018-10-07T21:02:04.363Z,10.33
2018-10-07T21:04:31.811Z,8.90
2018-10-07T21:06:59.323Z,10.93
2018-10-07T21:09:26.747Z,11.17
2018-10-07T21:11:54.308Z,9.63
2018-10-07T21:14:21.771Z,13.90
2018-10-07T21:16:49.240Z,9.83
2018-10-07T21:19:16.674Z,10.17
2018-10-07T21:21:44.234Z,12.63
2018-10-07T21:24:11.892Z,10.10
2018-10-07T21:26:39.451Z,12.53
2018-10-07T21:29:06.972Z,13.60
2018-10-07T21:31:34.531Z,10.60
2018-10-07T21:34:02.131Z,8.90
2018-10-07T21:36:29.636Z,10.27
2018-10-07T21:38:57.140Z,10.93
2018-10-07T21:41:24.663Z,9.03
2018-10-07T21:43:52.169Z,13.53
2018-10-07T21:46:19.625Z,8.90
2018-10-07T21:48:47.113Z,9.27
2018-10-07T21:51:14.608Z,13.23
2018-10-07T21:53:42.199Z,8.90
2018-10-07T21:56:09.804Z,8.33
2018-10-07T21:58:37.295Z,11.47
2018-10-07T22:01:04.742Z,8.77
2018-10-07T22:03:32.344Z,11.40
2018-10-07T22:05:59.776Z,10.10
2018-10-07T22:08:27.442Z,13.30
2018-10-07T22:10:54.878Z,9.33
2018-10-07T22:13:22.450Z,13.77
2018-10-07T22:15:49.928Z,9.83
2018-10-07T22:18:17.448Z,9.63
2018-10-07T22:20:44.876Z,8.60
2018-10-07T22:23:12.310Z,10.70
2018-10-07T22:25:39.758Z,15.43
2018-10-07T22:28:07.396Z,10.67
2018-10-07T22:30:34.826Z,9.67
2018-10-07T22:33:02.265Z,10.80
2018-10-07T22:35:29.717Z,11.73
2018-10-07T22:37:57.280Z,9.83
2018-10-07T22:40:24.744Z,11.07
2018-10-07T22:42:52.148Z,12.50
2018-10-07T22:45:19.584Z,10.20
2018-10-07T22:47:47.058Z,11.67
2018-10-07T22:50:14.625Z,12.93
2018-10-07T22:52:42.050Z,11.07
2018-10-07T22:55:09.500Z,11.30
2018-10-07T22:57:37.114Z,11.07
2018-10-07T23:00:05.060Z,13.50
2018-10-07T23:02:32.526Z,10.20
2018-10-07T23:04:59.950Z,13.20
2018-10-07T23:07:27.434Z,13.23
2018-10-07T23:09:54.886Z,10.60
2018-10-07T23:12:22.314Z,9.63
2018-10-07T23:14:49.774Z,11.20
2018-10-07T23:17:17.181Z,11.77
2018-10-07T23:19:44.605Z,14.00
2018-10-07T23:22:12.154Z,10.40
2018-10-07T23:24:39.530Z,14.40
2018-10-07T23:27:07.034Z,15.83
2018-10-07T23:29:34.468Z,8.40
2018-10-07T23:32:01.918Z,10.23
2018-10-07T23:34:29.354Z,11.53
2018-10-07T23:36:56.923Z,11.93
2018-10-07T23:39:24.820Z,15.57
2018-10-07T23:41:52.706Z,11.20
2018-10-07T23:44:20.148Z,13.70
2018-10-07T23:46:47.575Z,9.73
2018-10-07T23:49:15.031Z,9.87
2018-10-07T23:51:42.675Z,10.07
2018-10-07T23:54:10.030Z,9.30
2018-10-07T23:56:37.486Z,11.03
2018-10-07T23:59:04.949Z,9.70
